CCM61AT LFML-LFKJ
Flight info
| Callsign | CCM61AT |
|---|---|
| Flight time | 0h 39m |
| Altitude | 23000 |
| Route | TINOT Z154 RUBAS |
| Aircraft | A320/M-SDE3FGHIRWY/LB1 |
Departure
| Time | 2026-05-04 20:35 |
|---|---|
| Airport | Marseille Provence Airport (LFML) |
Arrival
| Time | 2026-05-04 21:14 |
|---|---|
| Airport | Ajaccio Napoléon Bonaparte airport (LFKJ) |
| Time | Latitude | Longitude | Altitude | Speed | Heading |
|---|---|---|---|---|---|
| 2026-05-04 20:12 | 43.43861 | 5.22302 | 45 ft | 0 kts | 74° |
| 2026-05-04 20:24 | 43.43855 | 5.22273 | 42 ft | 4 kts | 72° |
| 2026-05-04 20:24 | 43.43845 | 5.22240 | 41 ft | 4 kts | 54° |
| 2026-05-04 20:24 | 43.43827 | 5.22217 | 41 ft | 4 kts | 7° |
| 2026-05-04 20:24 | 43.43817 | 5.22217 | 42 ft | 0 kts | 343° |
| 2026-05-04 20:27 | 43.43818 | 5.22217 | 44 ft | 1 kts | 343° |
| 2026-05-04 20:27 | 43.43864 | 5.22174 | 43 ft | 11 kts | 294° |
| 2026-05-04 20:27 | 43.43830 | 5.22091 | 43 ft | 10 kts | 225° |
| 2026-05-04 20:27 | 43.43786 | 5.22021 | 42 ft | 9 kts | 247° |
| 2026-05-04 20:28 | 43.43828 | 5.21918 | 40 ft | 22 kts | 314° |
| 2026-05-04 20:28 | 43.43924 | 5.21783 | 37 ft | 20 kts | 315° |
| 2026-05-04 20:28 | 43.43979 | 5.21659 | 34 ft | 15 kts | 264° |
| 2026-05-04 20:28 | 43.43922 | 5.21538 | 32 ft | 15 kts | 255° |
| 2026-05-04 20:29 | 43.43970 | 5.21415 | 31 ft | 16 kts | 313° |
| 2026-05-04 20:29 | 43.44047 | 5.21305 | 28 ft | 16 kts | 314° |
| 2026-05-04 20:29 | 43.44128 | 5.21191 | 26 ft | 17 kts | 314° |
| 2026-05-04 20:29 | 43.44212 | 5.21072 | 22 ft | 18 kts | 314° |
| 2026-05-04 20:30 | 43.44287 | 5.20937 | 19 ft | 18 kts | 298° |
| 2026-05-04 20:30 | 43.44365 | 5.20784 | 18 ft | 23 kts | 314° |
| 2026-05-04 20:30 | 43.44470 | 5.20634 | 18 ft | 21 kts | 314° |
| 2026-05-04 20:30 | 43.44567 | 5.20496 | 18 ft | 19 kts | 314° |
| 2026-05-04 20:31 | 43.44681 | 5.20333 | 17 ft | 27 kts | 314° |
| 2026-05-04 20:31 | 43.44814 | 5.20145 | 17 ft | 28 kts | 314° |
| 2026-05-04 20:31 | 43.44927 | 5.19981 | 17 ft | 18 kts | 313° |
| 2026-05-04 20:31 | 43.44949 | 5.19950 | 17 ft | 0 kts | 314° |
| 2026-05-04 20:32 | 43.44950 | 5.19949 | 17 ft | 0 kts | 314° |
| 2026-05-04 20:32 | 43.44953 | 5.19945 | 17 ft | 4 kts | 314° |
| 2026-05-04 20:32 | 43.44980 | 5.19863 | 17 ft | 10 kts | 266° |
| 2026-05-04 20:33 | 43.44922 | 5.19772 | 18 ft | 13 kts | 202° |
| 2026-05-04 20:33 | 43.44854 | 5.19814 | 17 ft | 10 kts | 130° |
| 2026-05-04 20:33 | 43.44837 | 5.19840 | 18 ft | 0 kts | 134° |
| 2026-05-04 20:34 | 43.44834 | 5.19843 | 17 ft | 8 kts | 134° |
| 2026-05-04 20:34 | 43.44599 | 5.20184 | 18 ft | 85 kts | 134° |
| 2026-05-04 20:34 | 43.44039 | 5.20977 | 22 ft | 143 kts | 134° |
| 2026-05-04 20:35 | 43.43296 | 5.22010 | 510 ft | 150 kts | 129° |
| 2026-05-04 20:35 | 43.42543 | 5.22998 | 1294 ft | 150 kts | 139° |
| 2026-05-04 20:35 | 43.41665 | 5.23741 | 2067 ft | 149 kts | 145° |
| 2026-05-04 20:35 | 43.40762 | 5.24465 | 2788 ft | 148 kts | 146° |
| 2026-05-04 20:36 | 43.39885 | 5.25225 | 3358 ft | 155 kts | 147° |
| 2026-05-04 20:36 | 43.38917 | 5.26080 | 3667 ft | 175 kts | 147° |
| 2026-05-04 20:36 | 43.37838 | 5.27026 | 3872 ft | 200 kts | 148° |
| 2026-05-04 20:36 | 43.36578 | 5.28115 | 4209 ft | 227 kts | 149° |
| 2026-05-04 20:37 | 43.35182 | 5.29323 | 4847 ft | 246 kts | 150° |
| 2026-05-04 20:37 | 43.33710 | 5.30598 | 5649 ft | 254 kts | 150° |
| 2026-05-04 20:37 | 43.32187 | 5.31882 | 6515 ft | 259 kts | 155° |
| 2026-05-04 20:37 | 43.30482 | 5.32693 | 7357 ft | 261 kts | 172° |
| 2026-05-04 20:38 | 43.28688 | 5.32863 | 8368 ft | 258 kts | 180° |
| 2026-05-04 20:38 | 43.26868 | 5.32900 | 9187 ft | 266 kts | 181° |
| 2026-05-04 20:38 | 43.25011 | 5.32945 | 10064 ft | 268 kts | 182° |
| 2026-05-04 20:38 | 43.23096 | 5.32991 | 10560 ft | 286 kts | 182° |
| 2026-05-04 20:39 | 43.21024 | 5.33034 | 10815 ft | 310 kts | 182° |
| 2026-05-04 20:39 | 43.18819 | 5.33081 | 11284 ft | 323 kts | 180° |
| 2026-05-04 20:39 | 43.16554 | 5.33134 | 12059 ft | 326 kts | 181° |
| 2026-05-04 20:39 | 43.14259 | 5.33189 | 12754 ft | 333 kts | 181° |
| 2026-05-04 20:40 | 43.11933 | 5.33247 | 13519 ft | 337 kts | 181° |
| 2026-05-04 20:40 | 43.09575 | 5.33307 | 14199 ft | 340 kts | 181° |
| 2026-05-04 20:40 | 43.07192 | 5.33365 | 14855 ft | 344 kts | 181° |
| 2026-05-04 20:40 | 43.04788 | 5.33422 | 15556 ft | 346 kts | 182° |
| 2026-05-04 20:41 | 43.02369 | 5.33475 | 16219 ft | 350 kts | 181° |
| 2026-05-04 20:41 | 42.99922 | 5.33494 | 16859 ft | 353 kts | 183° |
| 2026-05-04 20:41 | 42.97458 | 5.33396 | 17497 ft | 357 kts | 185° |
| 2026-05-04 20:41 | 42.94967 | 5.33224 | 18165 ft | 360 kts | 185° |
| 2026-05-04 20:42 | 42.92468 | 5.33026 | 18813 ft | 361 kts | 185° |
| 2026-05-04 20:42 | 42.89955 | 5.32827 | 19398 ft | 363 kts | 185° |
| 2026-05-04 20:42 | 42.87415 | 5.32637 | 19920 ft | 368 kts | 185° |
| 2026-05-04 20:42 | 42.84846 | 5.32457 | 20465 ft | 372 kts | 185° |
| 2026-05-04 20:43 | 42.82249 | 5.32286 | 21021 ft | 375 kts | 185° |
| 2026-05-04 20:43 | 42.79633 | 5.32121 | 21586 ft | 378 kts | 185° |
| 2026-05-04 20:43 | 42.76988 | 5.32013 | 22124 ft | 383 kts | 180° |
| 2026-05-04 20:43 | 42.74338 | 5.32596 | 22633 ft | 391 kts | 166° |
| 2026-05-04 20:44 | 42.71815 | 5.34086 | 22911 ft | 401 kts | 153° |
| 2026-05-04 20:44 | 42.69603 | 5.36477 | 22978 ft | 413 kts | 137° |
| 2026-05-04 20:44 | 42.67896 | 5.39649 | 22978 ft | 422 kts | 122° |
| 2026-05-04 20:44 | 42.66790 | 5.43373 | 22979 ft | 428 kts | 112° |
| 2026-05-04 20:45 | 42.65839 | 5.47201 | 22975 ft | 428 kts | 112° |
| 2026-05-04 20:45 | 42.64885 | 5.51030 | 22983 ft | 428 kts | 112° |
| 2026-05-04 20:45 | 42.63925 | 5.54854 | 22977 ft | 428 kts | 112° |
| 2026-05-04 20:45 | 42.62962 | 5.58677 | 22978 ft | 428 kts | 112° |
| 2026-05-04 20:46 | 42.62000 | 5.62498 | 22977 ft | 428 kts | 112° |
| 2026-05-04 20:46 | 42.61038 | 5.66319 | 22980 ft | 428 kts | 112° |
| 2026-05-04 20:46 | 42.60072 | 5.70135 | 22979 ft | 428 kts | 113° |
| 2026-05-04 20:46 | 42.59102 | 5.73949 | 22960 ft | 428 kts | 113° |
| 2026-05-04 20:47 | 42.58129 | 5.77772 | 22961 ft | 428 kts | 113° |
| 2026-05-04 20:47 | 42.57156 | 5.81593 | 22966 ft | 429 kts | 112° |
| 2026-05-04 20:47 | 42.56183 | 5.85420 | 22968 ft | 429 kts | 113° |
| 2026-05-04 20:47 | 42.55221 | 5.89197 | 22969 ft | 429 kts | 113° |
| 2026-05-04 20:48 | 42.54244 | 5.93018 | 22968 ft | 429 kts | 113° |
| 2026-05-04 20:48 | 42.53264 | 5.96844 | 22978 ft | 429 kts | 113° |
| 2026-05-04 20:48 | 42.52602 | 5.99424 | 22977 ft | 429 kts | 113° |
| 2026-05-04 20:48 | 42.51621 | 6.03247 | 22978 ft | 429 kts | 113° |
| 2026-05-04 20:49 | 42.50639 | 6.07068 | 22976 ft | 429 kts | 113° |
| 2026-05-04 20:49 | 42.49336 | 6.12128 | 22971 ft | 429 kts | 113° |
| 2026-05-04 20:49 | 42.48350 | 6.15950 | 22969 ft | 430 kts | 113° |
| 2026-05-04 20:49 | 42.47363 | 6.19767 | 22977 ft | 430 kts | 113° |
| 2026-05-04 20:50 | 42.46693 | 6.22351 | 22970 ft | 430 kts | 113° |
| 2026-05-04 20:50 | 42.45703 | 6.26165 | 22978 ft | 430 kts | 113° |
| 2026-05-04 20:50 | 42.44711 | 6.29982 | 22980 ft | 430 kts | 113° |
| 2026-05-04 20:50 | 42.43722 | 6.33792 | 22975 ft | 430 kts | 113° |
| 2026-05-04 20:51 | 42.42728 | 6.37611 | 22971 ft | 430 kts | 113° |
| 2026-05-04 20:51 | 42.41747 | 6.41374 | 22973 ft | 430 kts | 113° |
| 2026-05-04 20:51 | 42.40750 | 6.45194 | 22974 ft | 430 kts | 113° |
| 2026-05-04 20:51 | 42.39750 | 6.49010 | 22957 ft | 430 kts | 113° |
| 2026-05-04 20:52 | 42.38751 | 6.52828 | 22963 ft | 431 kts | 113° |
| 2026-05-04 20:52 | 42.37750 | 6.56650 | 22976 ft | 431 kts | 113° |
| 2026-05-04 20:52 | 42.36746 | 6.60470 | 22980 ft | 431 kts | 113° |
| 2026-05-04 20:52 | 42.35739 | 6.64289 | 22984 ft | 431 kts | 113° |
| 2026-05-04 20:53 | 42.34731 | 6.68110 | 22988 ft | 431 kts | 113° |
| 2026-05-04 20:53 | 42.33724 | 6.71926 | 22997 ft | 432 kts | 113° |
| 2026-05-04 20:53 | 42.32714 | 6.75747 | 22997 ft | 432 kts | 113° |
| 2026-05-04 20:53 | 42.31703 | 6.79565 | 22999 ft | 432 kts | 113° |
| 2026-05-04 20:54 | 42.30691 | 6.83381 | 23001 ft | 432 kts | 113° |
| 2026-05-04 20:54 | 42.29678 | 6.87197 | 22986 ft | 432 kts | 113° |
| 2026-05-04 20:54 | 42.28666 | 6.91012 | 22992 ft | 432 kts | 113° |
| 2026-05-04 20:54 | 42.27648 | 6.94832 | 22995 ft | 432 kts | 113° |
| 2026-05-04 20:55 | 42.26628 | 6.98642 | 23002 ft | 432 kts | 113° |
| 2026-05-04 20:55 | 42.25607 | 7.02446 | 23008 ft | 432 kts | 113° |
| 2026-05-04 20:55 | 42.24582 | 7.06257 | 23004 ft | 431 kts | 113° |
| 2026-05-04 20:55 | 42.23560 | 7.10059 | 23011 ft | 431 kts | 113° |
| 2026-05-04 20:56 | 42.22536 | 7.13864 | 23001 ft | 431 kts | 113° |
| 2026-05-04 20:56 | 42.21512 | 7.17664 | 23005 ft | 431 kts | 113° |
| 2026-05-04 20:56 | 42.20486 | 7.21465 | 23006 ft | 431 kts | 113° |
| 2026-05-04 20:56 | 42.19459 | 7.25264 | 23003 ft | 431 kts | 113° |
| 2026-05-04 20:57 | 42.18434 | 7.29064 | 23004 ft | 431 kts | 113° |
| 2026-05-04 20:57 | 42.17410 | 7.32861 | 22942 ft | 429 kts | 113° |
| 2026-05-04 20:57 | 42.16398 | 7.36609 | 22660 ft | 423 kts | 113° |
| 2026-05-04 20:57 | 42.15391 | 7.40323 | 22392 ft | 421 kts | 114° |
| 2026-05-04 20:58 | 42.14386 | 7.44015 | 22129 ft | 419 kts | 114° |
| 2026-05-04 20:58 | 42.13399 | 7.47638 | 21874 ft | 417 kts | 114° |
| 2026-05-04 20:58 | 42.12402 | 7.51290 | 21613 ft | 415 kts | 114° |
| 2026-05-04 20:58 | 42.11407 | 7.54927 | 21360 ft | 413 kts | 114° |
| 2026-05-04 20:59 | 42.10415 | 7.58540 | 21103 ft | 410 kts | 114° |
| 2026-05-04 20:59 | 42.09427 | 7.62137 | 20845 ft | 409 kts | 114° |
| 2026-05-04 20:59 | 42.08443 | 7.65717 | 20594 ft | 407 kts | 114° |
| 2026-05-04 20:59 | 42.07466 | 7.69269 | 20282 ft | 402 kts | 114° |
| 2026-05-04 21:00 | 42.06502 | 7.72780 | 19802 ft | 398 kts | 114° |
| 2026-05-04 21:00 | 42.05545 | 7.76263 | 19296 ft | 396 kts | 114° |
| 2026-05-04 21:00 | 42.04591 | 7.79732 | 18786 ft | 394 kts | 114° |
| 2026-05-04 21:00 | 42.03641 | 7.83176 | 18259 ft | 392 kts | 114° |
| 2026-05-04 21:01 | 42.02690 | 7.86609 | 17688 ft | 390 kts | 114° |
| 2026-05-04 21:01 | 42.01746 | 7.90011 | 17165 ft | 387 kts | 114° |
| 2026-05-04 21:01 | 42.00807 | 7.93388 | 16639 ft | 384 kts | 114° |
| 2026-05-04 21:01 | 41.99872 | 7.96743 | 16110 ft | 382 kts | 114° |
| 2026-05-04 21:02 | 41.98910 | 8.00056 | 15583 ft | 378 kts | 119° |
| 2026-05-04 21:02 | 41.97598 | 8.03066 | 15082 ft | 370 kts | 130° |
| 2026-05-04 21:02 | 41.95919 | 8.05635 | 14600 ft | 363 kts | 141° |
| 2026-05-04 21:02 | 41.94011 | 8.07820 | 14106 ft | 359 kts | 144° |
| 2026-05-04 21:03 | 41.92099 | 8.09967 | 13596 ft | 357 kts | 144° |
| 2026-05-04 21:03 | 41.90203 | 8.12103 | 13071 ft | 354 kts | 144° |
| 2026-05-04 21:03 | 41.88326 | 8.14215 | 12594 ft | 350 kts | 144° |
| 2026-05-04 21:03 | 41.86470 | 8.16305 | 12096 ft | 347 kts | 144° |
| 2026-05-04 21:04 | 41.84653 | 8.18347 | 11608 ft | 344 kts | 144° |
| 2026-05-04 21:04 | 41.82824 | 8.20398 | 11108 ft | 341 kts | 144° |
| 2026-05-04 21:04 | 41.81006 | 8.22426 | 10622 ft | 338 kts | 144° |
| 2026-05-04 21:04 | 41.79233 | 8.24402 | 10479 ft | 325 kts | 144° |
| 2026-05-04 21:05 | 41.77536 | 8.26301 | 10360 ft | 312 kts | 144° |
| 2026-05-04 21:05 | 41.75905 | 8.28132 | 10239 ft | 300 kts | 144° |
| 2026-05-04 21:05 | 41.74330 | 8.29897 | 10011 ft | 292 kts | 144° |
| 2026-05-04 21:05 | 41.72783 | 8.31619 | 9922 ft | 288 kts | 144° |
| 2026-05-04 21:06 | 41.71231 | 8.33343 | 9527 ft | 290 kts | 144° |
| 2026-05-04 21:06 | 41.69686 | 8.35059 | 9136 ft | 288 kts | 144° |
| 2026-05-04 21:06 | 41.68152 | 8.36760 | 8759 ft | 285 kts | 145° |
| 2026-05-04 21:06 | 41.66629 | 8.38452 | 8389 ft | 284 kts | 145° |
| 2026-05-04 21:07 | 41.65247 | 8.40346 | 8014 ft | 288 kts | 126° |
| 2026-05-04 21:07 | 41.64552 | 8.42858 | 7542 ft | 293 kts | 100° |
| 2026-05-04 21:07 | 41.64433 | 8.45584 | 6967 ft | 294 kts | 91° |
| 2026-05-04 21:07 | 41.64801 | 8.48271 | 6435 ft | 295 kts | 75° |
| 2026-05-04 21:08 | 41.65411 | 8.50875 | 5890 ft | 293 kts | 74° |
| 2026-05-04 21:08 | 41.66055 | 8.53449 | 5391 ft | 288 kts | 73° |
| 2026-05-04 21:08 | 41.66695 | 8.55900 | 5239 ft | 271 kts | 73° |
| 2026-05-04 21:08 | 41.67314 | 8.58206 | 5030 ft | 257 kts | 73° |
| 2026-05-04 21:09 | 41.67919 | 8.60425 | 4695 ft | 250 kts | 73° |
| 2026-05-04 21:09 | 41.68502 | 8.62542 | 4591 ft | 237 kts | 73° |
| 2026-05-04 21:09 | 41.69102 | 8.64572 | 4490 ft | 233 kts | 64° |
| 2026-05-04 21:09 | 41.70123 | 8.66240 | 4290 ft | 234 kts | 39° |
| 2026-05-04 21:10 | 41.71531 | 8.67305 | 4146 ft | 232 kts | 24° |
| 2026-05-04 21:10 | 41.72993 | 8.68195 | 3969 ft | 233 kts | 25° |
| 2026-05-04 21:10 | 41.74486 | 8.69118 | 3653 ft | 238 kts | 25° |
| 2026-05-04 21:10 | 41.75987 | 8.70049 | 3338 ft | 238 kts | 26° |
| 2026-05-04 21:11 | 41.77481 | 8.70992 | 3024 ft | 237 kts | 26° |
| 2026-05-04 21:11 | 41.78955 | 8.71938 | 2779 ft | 233 kts | 26° |
| 2026-05-04 21:11 | 41.80390 | 8.72841 | 2522 ft | 228 kts | 25° |
| 2026-05-04 21:11 | 41.81802 | 8.73716 | 2228 ft | 216 kts | 25° |
| 2026-05-04 21:12 | 41.83107 | 8.74522 | 2020 ft | 200 kts | 27° |
| 2026-05-04 21:12 | 41.84320 | 8.75287 | 1744 ft | 188 kts | 25° |
| 2026-05-04 21:12 | 41.85493 | 8.75927 | 1427 ft | 175 kts | 24° |
| 2026-05-04 21:12 | 41.86533 | 8.76584 | 1258 ft | 154 kts | 27° |
| 2026-05-04 21:13 | 41.87477 | 8.77156 | 952 ft | 146 kts | 27° |
| 2026-05-04 21:13 | 41.88363 | 8.77745 | 697 ft | 140 kts | 25° |
| 2026-05-04 21:13 | 41.89242 | 8.78290 | 506 ft | 139 kts | 24° |
| 2026-05-04 21:13 | 41.90105 | 8.78824 | 323 ft | 134 kts | 26° |
| 2026-05-04 21:14 | 41.90951 | 8.79348 | 147 ft | 133 kts | 25° |
| 2026-05-04 21:14 | 41.91763 | 8.79852 | 29 ft | 118 kts | 25° |
| 2026-05-04 21:14 | 41.92297 | 8.80186 | 23 ft | 51 kts | 24° |
| 2026-05-04 21:14 | 41.92576 | 8.80360 | 23 ft | 39 kts | 24° |
| 2026-05-04 21:15 | 41.92719 | 8.80447 | 24 ft | 16 kts | 24° |
| 2026-05-04 21:15 | 41.92780 | 8.80404 | 23 ft | 12 kts | 294° |
| 2026-05-04 21:15 | 41.92814 | 8.80301 | 24 ft | 12 kts | 294° |
| 2026-05-04 21:15 | 41.92812 | 8.80204 | 24 ft | 14 kts | 228° |
| 2026-05-04 21:16 | 41.92719 | 8.80118 | 21 ft | 16 kts | 208° |
| 2026-05-04 21:16 | 41.92598 | 8.80041 | 21 ft | 22 kts | 205° |
| 2026-05-04 21:16 | 41.92463 | 8.79958 | 23 ft | 19 kts | 204° |
| 2026-05-04 21:16 | 41.92346 | 8.79884 | 21 ft | 18 kts | 205° |
| 2026-05-04 21:17 | 41.92236 | 8.79815 | 21 ft | 17 kts | 205° |
| 2026-05-04 21:17 | 41.92135 | 8.79753 | 21 ft | 15 kts | 205° |
| 2026-05-04 21:17 | 41.92043 | 8.79695 | 21 ft | 14 kts | 205° |
| 2026-05-04 21:17 | 41.91960 | 8.79644 | 21 ft | 11 kts | 205° |
| 2026-05-04 21:18 | 41.91927 | 8.79606 | 21 ft | 4 kts | 256° |
| 2026-05-04 21:18 | 41.91937 | 8.79585 | 21 ft | 2 kts | 320° |
| 2026-05-04 21:18 | 41.91948 | 8.79578 | 22 ft | 1 kts | 341° |
| 2026-05-04 21:18 | 41.91959 | 8.79574 | 21 ft | 2 kts | 345° |
| 2026-05-04 21:19 | 41.91968 | 8.79571 | 21 ft | 1 kts | 345° |
| 2026-05-04 21:19 | 41.91969 | 8.79571 | 21 ft | 0 kts | 345° |